Terminal Aerodrome Forecast
Issued by NWS Tuscon, AZ

Current Version | Previous Version | Text Only | Print | Product List | Glossary On
Versions: 1 2 3 4 5 6 7 8 9 10 11 12
000
FTUS45 KTWC 211700
TAFTUS
TAF
KTUS 211737Z 2118/2218 16007KT P6SM SCT130 OVC180
     FM212000 21008KT P6SM FEW080 SCT130 OVC180
     FM212200 27010G18KT P6SM SCT080 BKN130 BKN180
     FM220300 35005KT P6SM FEW130 SCT250
     FM220600 14006KT P6SM SCT250=

USA.gov is the U.S. government's official web portal to all federal, state and local government web resources and services.